sensor_id;sensor_type;location;lat;lon;timestamp;pressure;altitude;pressure_sealevel;temperature;humidity
16525;BME280;8375;33.594;-117.718;2023-04-10T00:00:17;100356.09;;;23.78;47.82
16525;BME280;8375;33.594;-117.718;2023-04-10T00:02:46;100346.91;;;23.67;47.95
16525;BME280;8375;33.594;-117.718;2023-04-10T00:05:17;100355.00;;;23.45;48.57
16525;BME280;8375;33.594;-117.718;2023-04-10T00:07:46;100354.56;;;23.35;48.32
16525;BME280;8375;33.594;-117.718;2023-04-10T00:10:14;100354.06;;;23.18;48.66
16525;BME280;8375;33.594;-117.718;2023-04-10T00:12:45;100356.94;;;23.23;49.65
16525;BME280;8375;33.594;-117.718;2023-04-10T00:15:13;100357.59;;;23.25;49.95
16525;BME280;8375;33.594;-117.718;2023-04-10T00:17:42;100356.00;;;23.31;49.38
16525;BME280;8375;33.594;-117.718;2023-04-10T00:20:11;100350.84;;;23.22;49.52
16525;BME280;8375;33.594;-117.718;2023-04-10T00:22:40;100350.84;;;23.22;49.94
16525;BME280;8375;33.594;-117.718;2023-04-10T00:25:09;100358.91;;;23.07;50.69
16525;BME280;8375;33.594;-117.718;2023-04-10T00:27:37;100356.28;;;22.72;51.83
16525;BME280;8375;33.594;-117.718;2023-04-10T00:30:09;100352.84;;;22.78;51.91
16525;BME280;8375;33.594;-117.718;2023-04-10T00:32:37;100360.41;;;22.81;51.17
16525;BME280;8375;33.594;-117.718;2023-04-10T00:35:08;100353.94;;;22.84;51.84
16525;BME280;8375;33.594;-117.718;2023-04-10T00:37:37;100353.06;;;22.77;51.37
16525;BME280;8375;33.594;-117.718;2023-04-10T00:40:06;100359.06;;;22.57;51.40
16525;BME280;8375;33.594;-117.718;2023-04-10T00:42:35;100361.59;;;22.44;52.87
16525;BME280;8375;33.594;-117.718;2023-04-10T00:45:05;100359.88;;;22.36;52.83
16525;BME280;8375;33.594;-117.718;2023-04-10T00:47:36;100370.03;;;22.32;52.61
16525;BME280;8375;33.594;-117.718;2023-04-10T00:50:06;100368.47;;;22.16;52.88
16525;BME280;8375;33.594;-117.718;2023-04-10T00:52:35;100368.84;;;22.13;52.80
16525;BME280;8375;33.594;-117.718;2023-04-10T00:55:05;100369.31;;;21.95;52.79
16525;BME280;8375;33.594;-117.718;2023-04-10T00:57:35;100370.38;;;22.01;53.14
16525;BME280;8375;33.594;-117.718;2023-04-10T01:00:04;100371.47;;;21.85;53.62
16525;BME280;8375;33.594;-117.718;2023-04-10T01:02:35;100374.78;;;21.72;54.46
16525;BME280;8375;33.594;-117.718;2023-04-10T01:05:04;100374.28;;;21.46;55.17
16525;BME280;8375;33.594;-117.718;2023-04-10T01:07:42;100374.41;;;21.08;56.13
16525;BME280;8375;33.594;-117.718;2023-04-10T01:10:17;100377.59;;;20.88;56.98
16525;BME280;8375;33.594;-117.718;2023-04-10T01:12:54;100376.31;;;20.84;57.32
16525;BME280;8375;33.594;-117.718;2023-04-10T01:15:26;100375.38;;;20.77;57.19
16525;BME280;8375;33.594;-117.718;2023-04-10T01:18:03;100373.44;;;20.56;57.73
16525;BME280;8375;33.594;-117.718;2023-04-10T01:20:37;100377.81;;;20.48;58.24
16525;BME280;8375;33.594;-117.718;2023-04-10T01:23:22;100371.88;;;20.46;58.79
16525;BME280;8375;33.594;-117.718;2023-04-10T01:26:00;100371.78;;;20.40;58.12
16525;BME280;8375;33.594;-117.718;2023-04-10T01:29:01;100381.16;;;20.19;59.29
16525;BME280;8375;33.594;-117.718;2023-04-10T01:31:36;100377.03;;;20.01;60.17
16525;BME280;8375;33.594;-117.718;2023-04-10T01:34:09;100375.94;;;19.87;60.26
16525;BME280;8375;33.594;-117.718;2023-04-10T01:36:46;100378.50;;;19.72;60.47
16525;BME280;8375;33.594;-117.718;2023-04-10T01:39:18;100387.56;;;19.70;60.90
16525;BME280;8375;33.594;-117.718;2023-04-10T01:41:50;100383.75;;;19.72;60.68
16525;BME280;8375;33.594;-117.718;2023-04-10T01:44:22;100381.56;;;19.53;61.23
16525;BME280;8375;33.594;-117.718;2023-04-10T01:46:53;100385.88;;;19.45;61.33
16525;BME280;8375;33.594;-117.718;2023-04-10T01:49:24;100382.78;;;19.42;62.17
16525;BME280;8375;33.594;-117.718;2023-04-10T01:51:55;100384.38;;;19.11;61.55
16525;BME280;8375;33.594;-117.718;2023-04-10T01:54:26;100388.38;;;18.82;62.94
16525;BME280;8375;33.594;-117.718;2023-04-10T01:56:55;100386.44;;;18.59;63.95
16525;BME280;8375;33.594;-117.718;2023-04-10T01:59:26;100385.59;;;18.51;64.74
16525;BME280;8375;33.594;-117.718;2023-04-10T02:01:56;100383.31;;;18.56;65.43
16525;BME280;8375;33.594;-117.718;2023-04-10T02:04:25;100385.13;;;18.47;64.97
16525;BME280;8375;33.594;-117.718;2023-04-10T02:07:01;100387.56;;;18.48;65.13
16525;BME280;8375;33.594;-117.718;2023-04-10T02:09:40;100385.47;;;18.44;66.41
16525;BME280;8375;33.594;-117.718;2023-04-10T02:12:15;100392.34;;;18.45;65.74
16525;BME280;8375;33.594;-117.718;2023-04-10T02:14:48;100391.53;;;18.20;66.81
16525;BME280;8375;33.594;-117.718;2023-04-10T02:17:22;100394.81;;;18.13;66.92
16525;BME280;8375;33.594;-117.718;2023-04-10T02:19:54;100387.84;;;17.96;68.46
16525;BME280;8375;33.594;-117.718;2023-04-10T02:22:24;100391.59;;;17.77;68.60
16525;BME280;8375;33.594;-117.718;2023-04-10T02:24:53;100395.22;;;17.84;68.83
16525;BME280;8375;33.594;-117.718;2023-04-10T02:27:29;100393.28;;;17.86;68.14
16525;BME280;8375;33.594;-117.718;2023-04-10T02:30:00;100399.47;;;17.77;68.59
16525;BME280;8375;33.594;-117.718;2023-04-10T02:32:30;100401.09;;;17.61;68.91
16525;BME280;8375;33.594;-117.718;2023-04-10T02:34:59;100400.59;;;17.66;70.77
16525;BME280;8375;33.594;-117.718;2023-04-10T02:37:29;100401.88;;;17.62;69.45
16525;BME280;8375;33.594;-117.718;2023-04-10T02:39:58;100404.03;;;17.58;69.27
16525;BME280;8375;33.594;-117.718;2023-04-10T02:42:26;100398.75;;;17.50;69.07
16525;BME280;8375;33.594;-117.718;2023-04-10T02:44:55;100403.78;;;17.43;69.26
16525;BME280;8375;33.594;-117.718;2023-04-10T02:47:25;100411.16;;;17.39;69.39
16525;BME280;8375;33.594;-117.718;2023-04-10T02:49:54;100410.28;;;17.30;69.45
16525;BME280;8375;33.594;-117.718;2023-04-10T02:52:23;100410.13;;;17.24;69.47
16525;BME280;8375;33.594;-117.718;2023-04-10T02:54:51;100414.50;;;17.15;70.34
16525;BME280;8375;33.594;-117.718;2023-04-10T02:57:20;100417.28;;;17.13;71.42
16525;BME280;8375;33.594;-117.718;2023-04-10T02:59:49;100422.34;;;17.15;69.85
16525;BME280;8375;33.594;-117.718;2023-04-10T03:02:19;100419.38;;;17.10;71.09
16525;BME280;8375;33.594;-117.718;2023-04-10T03:04:50;100421.16;;;17.01;72.56
16525;BME280;8375;33.594;-117.718;2023-04-10T03:07:18;100420.47;;;16.99;74.42
16525;BME280;8375;33.594;-117.718;2023-04-10T03:09:47;100422.25;;;16.98;74.55
16525;BME280;8375;33.594;-117.718;2023-04-10T03:12:16;100420.91;;;16.94;73.63
16525;BME280;8375;33.594;-117.718;2023-04-10T03:14:44;100432.66;;;16.90;73.91
16525;BME280;8375;33.594;-117.718;2023-04-10T03:17:13;100427.53;;;16.80;74.16
16525;BME280;8375;33.594;-117.718;2023-04-10T03:19:41;100435.66;;;16.69;74.55
16525;BME280;8375;33.594;-117.718;2023-04-10T03:22:12;100439.31;;;16.58;73.99
16525;BME280;8375;33.594;-117.718;2023-04-10T03:24:40;100440.03;;;16.42;74.64
16525;BME280;8375;33.594;-117.718;2023-04-10T03:27:09;100444.72;;;16.38;76.28
16525;BME280;8375;33.594;-117.718;2023-04-10T03:29:38;100452.88;;;16.35;76.39
16525;BME280;8375;33.594;-117.718;2023-04-10T03:32:07;100452.13;;;16.25;76.70
16525;BME280;8375;33.594;-117.718;2023-04-10T03:34:35;100451.91;;;16.18;77.14
16525;BME280;8375;33.594;-117.718;2023-04-10T03:37:04;100452.25;;;16.05;77.33
16525;BME280;8375;33.594;-117.718;2023-04-10T03:39:34;100465.03;;;15.90;78.03
16525;BME280;8375;33.594;-117.718;2023-04-10T03:42:03;100462.81;;;15.86;78.71
16525;BME280;8375;33.594;-117.718;2023-04-10T03:44:32;100464.59;;;15.85;78.99
16525;BME280;8375;33.594;-117.718;2023-04-10T03:47:01;100467.13;;;15.77;79.27
16525;BME280;8375;33.594;-117.718;2023-04-10T03:49:29;100467.84;;;15.69;79.80
16525;BME280;8375;33.594;-117.718;2023-04-10T03:51:58;100477.78;;;15.65;80.00
16525;BME280;8375;33.594;-117.718;2023-04-10T03:54:27;100477.53;;;15.59;80.00
16525;BME280;8375;33.594;-117.718;2023-04-10T03:56:57;100478.13;;;15.52;80.89
16525;BME280;8375;33.594;-117.718;2023-04-10T03:59:26;100481.44;;;15.45;81.36
16525;BME280;8375;33.594;-117.718;2023-04-10T04:01:55;100488.59;;;15.43;81.74
16525;BME280;8375;33.594;-117.718;2023-04-10T04:04:24;100490.72;;;15.29;81.78
16525;BME280;8375;33.594;-117.718;2023-04-10T04:06:53;100491.72;;;15.18;83.37
16525;BME280;8375;33.594;-117.718;2023-04-10T04:09:22;100491.72;;;15.08;83.48
16525;BME280;8375;33.594;-117.718;2023-04-10T04:11:50;100492.28;;;15.02;84.12
16525;BME280;8375;33.594;-117.718;2023-04-10T04:14:21;100493.41;;;15.00;84.74
16525;BME280;8375;33.594;-117.718;2023-04-10T04:16:49;100493.94;;;14.93;85.07
16525;BME280;8375;33.594;-117.718;2023-04-10T04:19:18;100498.91;;;14.87;85.22
16525;BME280;8375;33.594;-117.718;2023-04-10T04:21:47;100493.25;;;14.81;85.67
16525;BME280;8375;33.594;-117.718;2023-04-10T04:24:15;100501.53;;;14.77;86.23
16525;BME280;8375;33.594;-117.718;2023-04-10T04:26:44;100502.34;;;14.77;86.46
16525;BME280;8375;33.594;-117.718;2023-04-10T04:29:12;100514.31;;;14.70;85.86
16525;BME280;8375;33.594;-117.718;2023-04-10T04:31:43;100519.78;;;14.67;85.85
16525;BME280;8375;33.594;-117.718;2023-04-10T04:34:11;100512.34;;;14.62;86.21
16525;BME280;8375;33.594;-117.718;2023-04-10T04:36:40;100512.34;;;14.52;86.85
16525;BME280;8375;33.594;-117.718;2023-04-10T04:39:09;100510.84;;;14.50;87.28
16525;BME280;8375;33.594;-117.718;2023-04-10T04:41:38;100517.03;;;14.49;87.50
16525;BME280;8375;33.594;-117.718;2023-04-10T04:44:06;100514.00;;;14.44;87.90
16525;BME280;8375;33.594;-117.718;2023-04-10T04:46:35;100519.22;;;14.44;89.27
16525;BME280;8375;33.594;-117.718;2023-04-10T04:49:05;100515.66;;;14.45;88.99
16525;BME280;8375;33.594;-117.718;2023-04-10T04:51:34;100521.72;;;14.55;89.92
16525;BME280;8375;33.594;-117.718;2023-04-10T04:54:03;100520.19;;;14.52;88.21
16525;BME280;8375;33.594;-117.718;2023-04-10T04:56:32;100518.09;;;14.46;89.18
16525;BME280;8375;33.594;-117.718;2023-04-10T04:59:01;100519.22;;;14.44;89.33
16525;BME280;8375;33.594;-117.718;2023-04-10T05:01:30;100529.38;;;14.37;89.97
16525;BME280;8375;33.594;-117.718;2023-04-10T05:03:58;100523.88;;;14.30;90.06
16525;BME280;8375;33.594;-117.718;2023-04-10T05:06:29;100527.13;;;14.22;91.00
16525;BME280;8375;33.594;-117.718;2023-04-10T05:08:57;100522.44;;;14.16;90.45
16525;BME280;8375;33.594;-117.718;2023-04-10T05:11:26;100528.47;;;14.07;89.93
16525;BME280;8375;33.594;-117.718;2023-04-10T05:13:54;100523.63;;;13.92;91.59
16525;BME280;8375;33.594;-117.718;2023-04-10T05:16:23;100526.50;;;13.89;91.97
16525;BME280;8375;33.594;-117.718;2023-04-10T05:18:52;100517.41;;;13.84;93.06
16525;BME280;8375;33.594;-117.718;2023-04-10T05:21:21;100513.78;;;13.65;92.97
16525;BME280;8375;33.594;-117.718;2023-04-10T05:23:51;100519.09;;;13.63;94.21
16525;BME280;8375;33.594;-117.718;2023-04-10T05:26:20;100518.84;;;13.67;95.02
16525;BME280;8375;33.594;-117.718;2023-04-10T05:28:48;100514.28;;;13.59;93.87
16525;BME280;8375;33.594;-117.718;2023-04-10T05:31:17;100519.44;;;13.49;94.60
16525;BME280;8375;33.594;-117.718;2023-04-10T05:33:46;100515.06;;;13.49;94.98
16525;BME280;8375;33.594;-117.718;2023-04-10T05:36:14;100509.75;;;13.40;94.47
16525;BME280;8375;33.594;-117.718;2023-04-10T05:38:43;100516.31;;;13.34;94.88
16525;BME280;8375;33.594;-117.718;2023-04-10T05:41:13;100517.91;;;13.25;95.44
16525;BME280;8375;33.594;-117.718;2023-04-10T05:43:42;100511.66;;;13.16;96.02
16525;BME280;8375;33.594;-117.718;2023-04-10T05:46:11;100519.94;;;13.21;98.20
16525;BME280;8375;33.594;-117.718;2023-04-10T05:48:39;100509.75;;;13.18;97.66
16525;BME280;8375;33.594;-117.718;2023-04-10T05:51:08;100517.22;;;13.23;98.58
16525;BME280;8375;33.594;-117.718;2023-04-10T05:53:37;100510.16;;;13.14;98.17
16525;BME280;8375;33.594;-117.718;2023-04-10T05:56:06;100513.25;;;13.08;98.15
16525;BME280;8375;33.594;-117.718;2023-04-10T05:58:36;100513.50;;;13.04;98.57
16525;BME280;8375;33.594;-117.718;2023-04-10T06:01:05;100509.69;;;13.09;99.99
16525;BME280;8375;33.594;-117.718;2023-04-10T06:03:34;100515.88;;;13.08;99.61
16525;BME280;8375;33.594;-117.718;2023-04-10T06:06:03;100520.13;;;13.09;99.78
16525;BME280;8375;33.594;-117.718;2023-04-10T06:08:32;100517.88;;;13.04;99.40
16525;BME280;8375;33.594;-117.718;2023-04-10T06:11:01;100506.66;;;13.03;99.27
16525;BME280;8375;33.594;-117.718;2023-04-10T06:13:30;100511.41;;;12.98;98.93
16525;BME280;8375;33.594;-117.718;2023-04-10T06:16:01;100504.16;;;13.02;100.00
16525;BME280;8375;33.594;-117.718;2023-04-10T06:18:29;100514.03;;;12.98;99.71
16525;BME280;8375;33.594;-117.718;2023-04-10T06:20:58;100504.66;;;12.96;99.50
16525;BME280;8375;33.594;-117.718;2023-04-10T06:23:27;100506.91;;;13.00;100.00
16525;BME280;8375;33.594;-117.718;2023-04-10T06:25:56;100510.00;;;12.94;99.83
16525;BME280;8375;33.594;-117.718;2023-04-10T06:28:24;100506.66;;;13.03;100.00
16525;BME280;8375;33.594;-117.718;2023-04-10T06:30:53;100504.03;;;13.03;100.00
16525;BME280;8375;33.594;-117.718;2023-04-10T06:33:24;100505.00;;;13.02;100.00
16525;BME280;8375;33.594;-117.718;2023-04-10T06:35:53;100499.66;;;13.04;100.00
16525;BME280;8375;33.594;-117.718;2023-04-10T06:38:22;100498.25;;;13.00;100.00
16525;BME280;8375;33.594;-117.718;2023-04-10T06:40:51;100501.50;;;12.92;99.35
16525;BME280;8375;33.594;-117.718;2023-04-10T06:43:20;100491.63;;;12.96;100.00
16525;BME280;8375;33.594;-117.718;2023-04-10T06:45:48;100493.22;;;13.08;100.00
16525;BME280;8375;33.594;-117.718;2023-04-10T06:48:17;100493.03;;;13.00;100.00
16525;BME280;8375;33.594;-117.718;2023-04-10T06:50:47;100495.19;;;12.95;100.00
16525;BME280;8375;33.594;-117.718;2023-04-10T06:53:16;100486.13;;;12.89;100.00
16525;BME280;8375;33.594;-117.718;2023-04-10T06:55:45;100492.38;;;12.86;100.00
16525;BME280;8375;33.594;-117.718;2023-04-10T06:58:14;100496.91;;;12.84;100.00
16525;BME280;8375;33.594;-117.718;2023-04-10T07:00:43;100493.09;;;12.88;100.00
16525;BME280;8375;33.594;-117.718;2023-04-10T07:03:11;100496.19;;;12.82;100.00
16525;BME280;8375;33.594;-117.718;2023-04-10T07:05:40;100493.63;;;12.71;100.00
16525;BME280;8375;33.594;-117.718;2023-04-10T07:08:11;100502.91;;;12.64;100.00
16525;BME280;8375;33.594;-117.718;2023-04-10T07:10:39;100496.88;;;12.63;100.00
16525;BME280;8375;33.594;-117.718;2023-04-10T07:13:08;100503.09;;;12.72;100.00
16525;BME280;8375;33.594;-117.718;2023-04-10T07:15:37;100494.47;;;12.71;100.00
16525;BME280;8375;33.594;-117.718;2023-04-10T07:18:06;100498.59;;;12.74;100.00
16525;BME280;8375;33.594;-117.718;2023-04-10T07:20:35;100499.50;;;12.63;100.00
16525;BME280;8375;33.594;-117.718;2023-04-10T07:23:04;100493.19;;;12.66;100.00
16525;BME280;8375;33.594;-117.718;2023-04-10T07:25:35;100488.94;;;12.65;100.00
16525;BME280;8375;33.594;-117.718;2023-04-10T07:28:04;100495.50;;;12.47;100.00
16525;BME280;8375;33.594;-117.718;2023-04-10T07:30:32;100486.53;;;12.40;100.00
16525;BME280;8375;33.594;-117.718;2023-04-10T07:33:01;100495.38;;;12.49;100.00
16525;BME280;8375;33.594;-117.718;2023-04-10T07:35:29;100482.81;;;12.54;100.00
16525;BME280;8375;33.594;-117.718;2023-04-10T07:37:58;100487.56;;;12.49;100.00
16525;BME280;8375;33.594;-117.718;2023-04-10T07:40:27;100483.34;;;12.37;100.00
16525;BME280;8375;33.594;-117.718;2023-04-10T07:42:57;100484.31;;;12.24;100.00
16525;BME280;8375;33.594;-117.718;2023-04-10T07:45:26;100488.22;;;12.30;100.00
16525;BME280;8375;33.594;-117.718;2023-04-10T07:47:55;100492.03;;;12.14;100.00
16525;BME280;8375;33.594;-117.718;2023-04-10T07:50:24;100491.81;;;12.17;100.00
16525;BME280;8375;33.594;-117.718;2023-04-10T07:52:53;100499.16;;;12.12;100.00
16525;BME280;8375;33.594;-117.718;2023-04-10T07:55:22;100497.72;;;12.08;100.00
16525;BME280;8375;33.594;-117.718;2023-04-10T07:57:51;100493.25;;;12.10;100.00
16525;BME280;8375;33.594;-117.718;2023-04-10T08:00:21;100500.34;;;12.08;100.00
16525;BME280;8375;33.594;-117.718;2023-04-10T08:02:50;100505.53;;;12.20;100.00
16525;BME280;8375;33.594;-117.718;2023-04-10T08:05:18;100498.78;;;12.17;100.00
16525;BME280;8375;33.594;-117.718;2023-04-10T08:07:47;100497.50;;;12.11;100.00
16525;BME280;8375;33.594;-117.718;2023-04-10T08:10:16;100493.59;;;12.06;100.00
16525;BME280;8375;33.594;-117.718;2023-04-10T08:12:44;100491.69;;;12.08;100.00
16525;BME280;8375;33.594;-117.718;2023-04-10T08:15:13;100490.28;;;12.03;100.00
16525;BME280;8375;33.594;-117.718;2023-04-10T08:17:43;100485.75;;;11.94;100.00
16525;BME280;8375;33.594;-117.718;2023-04-10T08:20:13;100480.44;;;11.96;100.00
16525;BME280;8375;33.594;-117.718;2023-04-10T08:22:41;100491.34;;;11.89;100.00
16525;BME280;8375;33.594;-117.718;2023-04-10T08:25:10;100484.59;;;11.87;100.00
16525;BME280;8375;33.594;-117.718;2023-04-10T08:27:39;100485.06;;;11.81;100.00
16525;BME280;8375;33.594;-117.718;2023-04-10T08:30:08;100490.50;;;11.78;100.00
16525;BME280;8375;33.594;-117.718;2023-04-10T08:32:37;100491.91;;;11.59;100.00
16525;BME280;8375;33.594;-117.718;2023-04-10T08:35:08;100480.81;;;11.68;100.00
16525;BME280;8375;33.594;-117.718;2023-04-10T08:37:37;100478.44;;;11.65;100.00
16525;BME280;8375;33.594;-117.718;2023-04-10T08:40:06;100481.88;;;11.77;100.00
16525;BME280;8375;33.594;-117.718;2023-04-10T08:42:35;100486.13;;;11.89;100.00
16525;BME280;8375;33.594;-117.718;2023-04-10T08:45:05;100475.97;;;12.09;100.00
16525;BME280;8375;33.594;-117.718;2023-04-10T08:47:35;100475.09;;;12.20;100.00
16525;BME280;8375;33.594;-117.718;2023-04-10T08:50:09;100481.16;;;12.21;100.00
16525;BME280;8375;33.594;-117.718;2023-04-10T08:52:42;100482.91;;;12.20;100.00
16525;BME280;8375;33.594;-117.718;2023-04-10T08:55:13;100481.97;;;12.21;100.00
16525;BME280;8375;33.594;-117.718;2023-04-10T08:57:42;100479.97;;;12.25;100.00
16525;BME280;8375;33.594;-117.718;2023-04-10T09:00:12;100482.56;;;12.25;100.00
16525;BME280;8375;33.594;-117.718;2023-04-10T09:02:41;100474.25;;;12.31;100.00
16525;BME280;8375;33.594;-117.718;2023-04-10T09:05:12;100477.31;;;12.36;100.00
16525;BME280;8375;33.594;-117.718;2023-04-10T09:07:41;100472.47;;;12.31;100.00
16525;BME280;8375;33.594;-117.718;2023-04-10T09:10:10;100474.97;;;12.33;100.00
16525;BME280;8375;33.594;-117.718;2023-04-10T09:12:45;100477.47;;;12.23;100.00
16525;BME280;8375;33.594;-117.718;2023-04-10T09:15:14;100469.91;;;12.20;100.00
16525;BME280;8375;33.594;-117.718;2023-04-10T09:18:01;100465.78;;;12.17;100.00
16525;BME280;8375;33.594;-117.718;2023-04-10T09:20:32;100466.13;;;12.13;100.00
16525;BME280;8375;33.594;-117.718;2023-04-10T09:23:00;100464.47;;;12.12;100.00
16525;BME280;8375;33.594;-117.718;2023-04-10T09:25:31;100466.63;;;12.07;100.00
16525;BME280;8375;33.594;-117.718;2023-04-10T09:28:01;100467.56;;;12.06;100.00
16525;BME280;8375;33.594;-117.718;2023-04-10T09:30:35;100470.84;;;11.96;100.00
16525;BME280;8375;33.594;-117.718;2023-04-10T09:33:20;100469.69;;;12.00;100.00
16525;BME280;8375;33.594;-117.718;2023-04-10T09:35:51;100456.91;;;11.97;100.00
16525;BME280;8375;33.594;-117.718;2023-04-10T09:38:20;100458.09;;;12.05;100.00
16525;BME280;8375;33.594;-117.718;2023-04-10T09:40:49;100459.75;;;12.06;100.00
16525;BME280;8375;33.594;-117.718;2023-04-10T09:43:19;100460.00;;;12.02;100.00
16525;BME280;8375;33.594;-117.718;2023-04-10T09:45:50;100460.94;;;12.01;100.00
16525;BME280;8375;33.594;-117.718;2023-04-10T09:48:19;100457.03;;;11.96;100.00
16525;BME280;8375;33.594;-117.718;2023-04-10T09:50:50;100449.72;;;11.89;100.00
16525;BME280;8375;33.594;-117.718;2023-04-10T09:53:19;100453.84;;;11.92;100.00
16525;BME280;8375;33.594;-117.718;2023-04-10T09:55:48;100441.66;;;11.93;100.00
16525;BME280;8375;33.594;-117.718;2023-04-10T09:58:17;100448.41;;;11.84;100.00
16525;BME280;8375;33.594;-117.718;2023-04-10T10:00:46;100448.19;;;11.76;100.00
16525;BME280;8375;33.594;-117.718;2023-04-10T10:03:16;100443.56;;;11.91;100.00
16525;BME280;8375;33.594;-117.718;2023-04-10T10:05:48;100438.81;;;11.96;100.00
16525;BME280;8375;33.594;-117.718;2023-04-10T10:08:18;100431.25;;;11.93;100.00
16525;BME280;8375;33.594;-117.718;2023-04-10T10:10:48;100429.72;;;12.01;100.00
16525;BME280;8375;33.594;-117.718;2023-04-10T10:13:23;100425.69;;;11.97;100.00
16525;BME280;8375;33.594;-117.718;2023-04-10T10:16:02;100424.66;;;12.00;100.00
16525;BME280;8375;33.594;-117.718;2023-04-10T10:18:37;100415.41;;;11.96;100.00
16525;BME280;8375;33.594;-117.718;2023-04-10T10:21:08;100417.66;;;12.00;100.00
16525;BME280;8375;33.594;-117.718;2023-04-10T10:23:39;100415.28;;;11.97;100.00
16525;BME280;8375;33.594;-117.718;2023-04-10T10:26:09;100415.88;;;12.12;100.00
16525;BME280;8375;33.594;-117.718;2023-04-10T10:28:40;100417.03;;;12.20;100.00
16525;BME280;8375;33.594;-117.718;2023-04-10T10:31:09;100409.03;;;12.11;100.00
16525;BME280;8375;33.594;-117.718;2023-04-10T10:33:38;100416.38;;;12.06;100.00
16525;BME280;8375;33.594;-117.718;2023-04-10T10:36:08;100416.84;;;12.00;100.00
16525;BME280;8375;33.594;-117.718;2023-04-10T10:38:55;100407.72;;;11.94;100.00
16525;BME280;8375;33.594;-117.718;2023-04-10T10:41:32;100407.88;;;11.81;100.00
16525;BME280;8375;33.594;-117.718;2023-04-10T10:44:10;100408.69;;;11.82;100.00
16525;BME280;8375;33.594;-117.718;2023-04-10T10:46:53;100411.66;;;11.77;100.00
16525;BME280;8375;33.594;-117.718;2023-04-10T10:49:53;100418.53;;;11.78;100.00
16525;BME280;8375;33.594;-117.718;2023-04-10T10:52:42;100414.63;;;11.72;100.00
16525;BME280;8375;33.594;-117.718;2023-04-10T10:55:32;100411.19;;;11.72;100.00
16525;BME280;8375;33.594;-117.718;2023-04-10T10:58:05;100415.56;;;11.60;100.00
16525;BME280;8375;33.594;-117.718;2023-04-10T11:01:04;100413.09;;;11.58;100.00
16525;BME280;8375;33.594;-117.718;2023-04-10T11:03:34;100416.88;;;11.54;100.00
16525;BME280;8375;33.594;-117.718;2023-04-10T11:06:05;100413.34;;;11.55;100.00
16525;BME280;8375;33.594;-117.718;2023-04-10T11:08:42;100406.72;;;11.51;100.00
16525;BME280;8375;33.594;-117.718;2023-04-10T11:11:14;100411.56;;;11.56;100.00
16525;BME280;8375;33.594;-117.718;2023-04-10T11:14:13;100411.44;;;11.57;100.00
16525;BME280;8375;33.594;-117.718;2023-04-10T11:16:46;100408.25;;;11.54;100.00
16525;BME280;8375;33.594;-117.718;2023-04-10T11:19:15;100410.50;;;11.47;100.00
16525;BME280;8375;33.594;-117.718;2023-04-10T11:22:04;100405.06;;;11.50;100.00
16525;BME280;8375;33.594;-117.718;2023-04-10T11:24:53;100412.16;;;11.48;100.00
16525;BME280;8375;33.594;-117.718;2023-04-10T11:27:44;100417.38;;;11.48;100.00
16525;BME280;8375;33.594;-117.718;2023-04-10T11:30:33;100415.94;;;11.44;100.00
16525;BME280;8375;33.594;-117.718;2023-04-10T11:33:03;100411.47;;;11.35;100.00
16525;BME280;8375;33.594;-117.718;2023-04-10T11:35:32;100413.13;;;11.36;100.00
16525;BME280;8375;33.594;-117.718;2023-04-10T11:38:15;100420.44;;;11.30;100.00
16525;BME280;8375;33.594;-117.718;2023-04-10T11:40:54;100420.31;;;11.32;100.00
16525;BME280;8375;33.594;-117.718;2023-04-10T11:43:25;100412.50;;;11.21;100.00
16525;BME280;8375;33.594;-117.718;2023-04-10T11:46:03;100413.09;;;11.13;100.00
16525;BME280;8375;33.594;-117.718;2023-04-10T11:48:33;100415.22;;;11.19;100.00
16525;BME280;8375;33.594;-117.718;2023-04-10T11:51:09;100417.47;;;11.35;100.00
16525;BME280;8375;33.594;-117.718;2023-04-10T11:53:38;100417.38;;;11.37;100.00
16525;BME280;8375;33.594;-117.718;2023-04-10T11:56:15;100420.66;;;11.27;100.00
16525;BME280;8375;33.594;-117.718;2023-04-10T11:58:48;100427.03;;;11.23;100.00
16525;BME280;8375;33.594;-117.718;2023-04-10T12:01:21;100424.19;;;11.15;100.00
16525;BME280;8375;33.594;-117.718;2023-04-10T12:03:49;100428.44;;;11.16;100.00
16525;BME280;8375;33.594;-117.718;2023-04-10T12:06:18;100420.88;;;11.13;100.00
16525;BME280;8375;33.594;-117.718;2023-04-10T12:08:48;100424.66;;;11.09;100.00
16525;BME280;8375;33.594;-117.718;2023-04-10T12:11:18;100423.25;;;11.05;100.00
16525;BME280;8375;33.594;-117.718;2023-04-10T12:13:51;100420.66;;;11.05;100.00
16525;BME280;8375;33.594;-117.718;2023-04-10T12:16:20;100429.72;;;10.99;100.00
16525;BME280;8375;33.594;-117.718;2023-04-10T12:18:49;100433.38;;;10.96;100.00
16525;BME280;8375;33.594;-117.718;2023-04-10T12:21:18;100429.84;;;10.97;100.00
16525;BME280;8375;33.594;-117.718;2023-04-10T12:23:47;100442.38;;;11.04;100.00
16525;BME280;8375;33.594;-117.718;2023-04-10T12:26:17;100439.78;;;11.04;100.00
16525;BME280;8375;33.594;-117.718;2023-04-10T12:28:51;100447.34;;;11.07;100.00
16525;BME280;8375;33.594;-117.718;2023-04-10T12:31:26;100446.41;;;11.19;100.00
16525;BME280;8375;33.594;-117.718;2023-04-10T12:33:55;100450.91;;;11.17;100.00
16525;BME280;8375;33.594;-117.718;2023-04-10T12:36:25;100455.97;;;11.19;100.00
16525;BME280;8375;33.594;-117.718;2023-04-10T12:38:55;100453.50;;;11.17;100.00
16525;BME280;8375;33.594;-117.718;2023-04-10T12:41:25;100452.06;;;11.13;100.00
16525;BME280;8375;33.594;-117.718;2023-04-10T12:44:07;100457.75;;;11.18;100.00